sensor_id;sensor_type;location;lat;lon;timestamp;P1;durP1;ratioP1;P2;durP2;ratioP2
14141;SDS011;7151;52.246;4.820;2022-08-14T00:01:15;3.83;;;2.55;;
14141;SDS011;7151;52.246;4.820;2022-08-14T00:03:41;2.60;;;2.40;;
14141;SDS011;7151;52.246;4.820;2022-08-14T00:06:07;3.35;;;2.95;;
14141;SDS011;7151;52.246;4.820;2022-08-14T00:08:33;3.03;;;2.83;;
14141;SDS011;7151;52.246;4.820;2022-08-14T00:10:58;2.97;;;2.75;;
14141;SDS011;7151;52.246;4.820;2022-08-14T00:13:24;4.07;;;3.15;;
14141;SDS011;7151;52.246;4.820;2022-08-14T00:15:56;2.80;;;2.60;;
14141;SDS011;7151;52.246;4.820;2022-08-14T00:18:23;2.95;;;2.60;;
14141;SDS011;7151;52.246;4.820;2022-08-14T00:20:50;2.70;;;2.50;;
14141;SDS011;7151;52.246;4.820;2022-08-14T00:23:16;3.30;;;3.00;;
14141;SDS011;7151;52.246;4.820;2022-08-14T00:25:53;3.08;;;2.88;;
14141;SDS011;7151;52.246;4.820;2022-08-14T00:28:19;4.32;;;3.00;;
14141;SDS011;7151;52.246;4.820;2022-08-14T00:30:50;4.95;;;3.10;;
14141;SDS011;7151;52.246;4.820;2022-08-14T00:33:24;3.50;;;3.20;;
14141;SDS011;7151;52.246;4.820;2022-08-14T00:35:51;3.60;;;3.30;;
14141;SDS011;7151;52.246;4.820;2022-08-14T00:38:17;3.80;;;3.40;;
14141;SDS011;7151;52.246;4.820;2022-08-14T00:40:44;5.32;;;4.00;;
14141;SDS011;7151;52.246;4.820;2022-08-14T00:43:09;3.80;;;3.50;;
14141;SDS011;7151;52.246;4.820;2022-08-14T00:45:35;8.10;;;3.90;;
14141;SDS011;7151;52.246;4.820;2022-08-14T00:48:02;6.00;;;3.63;;
14141;SDS011;7151;52.246;4.820;2022-08-14T00:50:28;4.60;;;3.93;;
14141;SDS011;7151;52.246;4.820;2022-08-14T00:52:55;5.13;;;4.43;;
14141;SDS011;7151;52.246;4.820;2022-08-14T00:55:22;3.83;;;3.53;;
14141;SDS011;7151;52.246;4.820;2022-08-14T00:57:48;6.35;;;4.00;;
14141;SDS011;7151;52.246;4.820;2022-08-14T01:00:34;4.73;;;3.70;;
14141;SDS011;7151;52.246;4.820;2022-08-14T01:03:00;4.23;;;3.53;;
14141;SDS011;7151;52.246;4.820;2022-08-14T01:05:27;3.80;;;3.50;;
14141;SDS011;7151;52.246;4.820;2022-08-14T01:07:53;4.35;;;3.95;;
14141;SDS011;7151;52.246;4.820;2022-08-14T01:10:23;5.93;;;4.00;;
14141;SDS011;7151;52.246;4.820;2022-08-14T01:13:10;4.30;;;3.67;;
14141;SDS011;7151;52.246;4.820;2022-08-14T01:15:40;4.27;;;3.77;;
14141;SDS011;7151;52.246;4.820;2022-08-14T01:18:10;4.40;;;4.00;;
14141;SDS011;7151;52.246;4.820;2022-08-14T01:20:55;4.15;;;3.80;;
14141;SDS011;7151;52.246;4.820;2022-08-14T01:23:31;4.53;;;4.13;;
14141;SDS011;7151;52.246;4.820;2022-08-14T01:25:58;4.20;;;3.80;;
14141;SDS011;7151;52.246;4.820;2022-08-14T01:28:24;4.90;;;3.97;;
14141;SDS011;7151;52.246;4.820;2022-08-14T01:30:55;5.23;;;4.23;;
14141;SDS011;7151;52.246;4.820;2022-08-14T01:33:24;4.67;;;4.20;;
14141;SDS011;7151;52.246;4.820;2022-08-14T01:35:54;4.20;;;3.27;;
14141;SDS011;7151;52.246;4.820;2022-08-14T01:38:22;5.67;;;3.77;;
14141;SDS011;7151;52.246;4.820;2022-08-14T01:41:11;6.10;;;4.43;;
14141;SDS011;7151;52.246;4.820;2022-08-14T01:43:42;4.43;;;4.03;;
14141;SDS011;7151;52.246;4.820;2022-08-14T01:46:18;6.50;;;4.30;;
14141;SDS011;7151;52.246;4.820;2022-08-14T01:48:49;4.40;;;3.73;;
14141;SDS011;7151;52.246;4.820;2022-08-14T01:51:19;6.07;;;4.13;;
14141;SDS011;7151;52.246;4.820;2022-08-14T01:53:49;5.20;;;4.70;;
14141;SDS011;7151;52.246;4.820;2022-08-14T01:56:18;5.43;;;4.60;;
14141;SDS011;7151;52.246;4.820;2022-08-14T01:58:47;5.70;;;4.83;;
14141;SDS011;7151;52.246;4.820;2022-08-14T02:01:16;4.93;;;4.47;;
14141;SDS011;7151;52.246;4.820;2022-08-14T02:03:43;4.63;;;4.23;;
14141;SDS011;7151;52.246;4.820;2022-08-14T02:06:10;5.43;;;4.93;;
14141;SDS011;7151;52.246;4.820;2022-08-14T02:08:37;5.43;;;4.13;;
14141;SDS011;7151;52.246;4.820;2022-08-14T02:11:05;3.87;;;3.57;;
14141;SDS011;7151;52.246;4.820;2022-08-14T02:13:43;5.73;;;4.40;;
14141;SDS011;7151;52.246;4.820;2022-08-14T02:16:10;5.10;;;3.93;;
14141;SDS011;7151;52.246;4.820;2022-08-14T02:18:37;4.83;;;4.37;;
14141;SDS011;7151;52.246;4.820;2022-08-14T02:21:03;4.27;;;3.90;;
14141;SDS011;7151;52.246;4.820;2022-08-14T02:23:30;4.70;;;4.30;;
14141;SDS011;7151;52.246;4.820;2022-08-14T02:25:56;5.13;;;4.60;;
14141;SDS011;7151;52.246;4.820;2022-08-14T02:28:24;5.10;;;4.60;;
14141;SDS011;7151;52.246;4.820;2022-08-14T02:30:54;6.03;;;4.87;;
14141;SDS011;7151;52.246;4.820;2022-08-14T02:33:20;5.63;;;4.63;;
14141;SDS011;7151;52.246;4.820;2022-08-14T02:35:47;5.97;;;4.83;;
14141;SDS011;7151;52.246;4.820;2022-08-14T02:38:12;5.97;;;4.47;;
14141;SDS011;7151;52.246;4.820;2022-08-14T02:40:38;5.70;;;4.90;;
14141;SDS011;7151;52.246;4.820;2022-08-14T02:43:04;6.27;;;4.83;;
14141;SDS011;7151;52.246;4.820;2022-08-14T02:45:31;6.90;;;5.00;;
14141;SDS011;7151;52.246;4.820;2022-08-14T02:47:57;8.57;;;5.00;;
14141;SDS011;7151;52.246;4.820;2022-08-14T02:50:27;5.17;;;4.67;;
14141;SDS011;7151;52.246;4.820;2022-08-14T02:52:53;5.30;;;4.80;;
14141;SDS011;7151;52.246;4.820;2022-08-14T02:55:19;5.10;;;4.50;;
14141;SDS011;7151;52.246;4.820;2022-08-14T02:57:45;6.93;;;5.10;;
14141;SDS011;7151;52.246;4.820;2022-08-14T03:00:15;6.07;;;4.40;;
14141;SDS011;7151;52.246;4.820;2022-08-14T03:02:41;5.17;;;4.53;;
14141;SDS011;7151;52.246;4.820;2022-08-14T03:05:07;5.40;;;4.60;;
14141;SDS011;7151;52.246;4.820;2022-08-14T03:07:32;6.43;;;4.90;;
14141;SDS011;7151;52.246;4.820;2022-08-14T03:09:58;7.20;;;4.80;;
14141;SDS011;7151;52.246;4.820;2022-08-14T03:12:24;5.50;;;4.77;;
14141;SDS011;7151;52.246;4.820;2022-08-14T03:14:50;5.53;;;4.33;;
14141;SDS011;7151;52.246;4.820;2022-08-14T03:17:17;5.60;;;5.00;;
14141;SDS011;7151;52.246;4.820;2022-08-14T03:19:42;5.13;;;4.67;;
14141;SDS011;7151;52.246;4.820;2022-08-14T03:22:08;6.03;;;4.90;;
14141;SDS011;7151;52.246;4.820;2022-08-14T03:24:34;5.47;;;4.60;;
14141;SDS011;7151;52.246;4.820;2022-08-14T03:27:03;5.13;;;4.63;;
14141;SDS011;7151;52.246;4.820;2022-08-14T03:29:30;5.30;;;4.80;;
14141;SDS011;7151;52.246;4.820;2022-08-14T03:31:56;5.90;;;5.03;;
14141;SDS011;7151;52.246;4.820;2022-08-14T03:34:23;5.63;;;4.77;;
14141;SDS011;7151;52.246;4.820;2022-08-14T03:36:51;5.93;;;4.97;;
14141;SDS011;7151;52.246;4.820;2022-08-14T03:39:22;5.00;;;4.50;;
14141;SDS011;7151;52.246;4.820;2022-08-14T03:41:52;6.70;;;5.00;;
14141;SDS011;7151;52.246;4.820;2022-08-14T03:44:20;5.60;;;5.07;;
14141;SDS011;7151;52.246;4.820;2022-08-14T03:46:46;5.10;;;4.60;;
14141;SDS011;7151;52.246;4.820;2022-08-14T03:49:11;6.00;;;5.37;;
14141;SDS011;7151;52.246;4.820;2022-08-14T03:51:37;5.87;;;4.97;;
14141;SDS011;7151;52.246;4.820;2022-08-14T03:54:04;6.67;;;4.50;;
14141;SDS011;7151;52.246;4.820;2022-08-14T03:56:32;4.73;;;4.23;;
14141;SDS011;7151;52.246;4.820;2022-08-14T03:59:01;6.50;;;5.37;;
14141;SDS011;7151;52.246;4.820;2022-08-14T04:01:35;5.23;;;4.70;;
14141;SDS011;7151;52.246;4.820;2022-08-14T04:04:06;5.53;;;4.93;;
14141;SDS011;7151;52.246;4.820;2022-08-14T04:06:33;7.57;;;5.10;;
14141;SDS011;7151;52.246;4.820;2022-08-14T04:08:59;5.90;;;4.80;;
14141;SDS011;7151;52.246;4.820;2022-08-14T04:11:25;7.97;;;5.07;;
14141;SDS011;7151;52.246;4.820;2022-08-14T04:13:51;4.87;;;4.43;;
14141;SDS011;7151;52.246;4.820;2022-08-14T04:16:18;6.10;;;4.67;;
14141;SDS011;7151;52.246;4.820;2022-08-14T04:18:48;12.07;;;5.40;;
14141;SDS011;7151;52.246;4.820;2022-08-14T04:21:16;5.30;;;4.80;;
14141;SDS011;7151;52.246;4.820;2022-08-14T04:23:44;5.37;;;4.87;;
14141;SDS011;7151;52.246;4.820;2022-08-14T04:26:12;6.07;;;5.50;;
14141;SDS011;7151;52.246;4.820;2022-08-14T04:28:39;7.23;;;5.30;;
14141;SDS011;7151;52.246;4.820;2022-08-14T04:31:06;7.57;;;5.30;;
14141;SDS011;7151;52.246;4.820;2022-08-14T04:33:32;5.90;;;5.27;;
14141;SDS011;7151;52.246;4.820;2022-08-14T04:35:58;5.63;;;4.90;;
14141;SDS011;7151;52.246;4.820;2022-08-14T04:38:24;7.13;;;5.53;;
14141;SDS011;7151;52.246;4.820;2022-08-14T04:41:08;6.90;;;5.30;;
14141;SDS011;7151;52.246;4.820;2022-08-14T04:43:52;5.70;;;5.10;;
14141;SDS011;7151;52.246;4.820;2022-08-14T04:46:19;6.87;;;5.10;;
14141;SDS011;7151;52.246;4.820;2022-08-14T04:48:45;5.83;;;5.23;;
14141;SDS011;7151;52.246;4.820;2022-08-14T04:51:13;9.10;;;5.40;;
14141;SDS011;7151;52.246;4.820;2022-08-14T04:53:41;6.20;;;5.23;;
14141;SDS011;7151;52.246;4.820;2022-08-14T04:56:09;8.00;;;5.60;;
14141;SDS011;7151;52.246;4.820;2022-08-14T04:58:36;6.10;;;5.50;;
14141;SDS011;7151;52.246;4.820;2022-08-14T05:01:03;6.30;;;5.40;;
14141;SDS011;7151;52.246;4.820;2022-08-14T05:03:31;5.67;;;5.17;;
14141;SDS011;7151;52.246;4.820;2022-08-14T05:06:00;6.80;;;5.33;;
14141;SDS011;7151;52.246;4.820;2022-08-14T05:08:27;5.97;;;4.93;;
14141;SDS011;7151;52.246;4.820;2022-08-14T05:10:55;6.73;;;5.27;;
14141;SDS011;7151;52.246;4.820;2022-08-14T05:13:24;5.80;;;5.17;;
14141;SDS011;7151;52.246;4.820;2022-08-14T05:15:51;5.97;;;5.37;;
14141;SDS011;7151;52.246;4.820;2022-08-14T05:18:19;6.87;;;5.30;;
14141;SDS011;7151;52.246;4.820;2022-08-14T05:20:48;6.23;;;5.40;;
14141;SDS011;7151;52.246;4.820;2022-08-14T05:23:16;6.67;;;5.33;;
14141;SDS011;7151;52.246;4.820;2022-08-14T05:25:47;8.70;;;5.23;;
14141;SDS011;7151;52.246;4.820;2022-08-14T05:28:15;6.60;;;5.97;;
14141;SDS011;7151;52.246;4.820;2022-08-14T05:30:46;6.10;;;5.50;;
14141;SDS011;7151;52.246;4.820;2022-08-14T05:33:12;6.40;;;5.77;;
14141;SDS011;7151;52.246;4.820;2022-08-14T05:35:40;5.73;;;5.17;;
14141;SDS011;7151;52.246;4.820;2022-08-14T05:38:07;6.63;;;5.63;;
14141;SDS011;7151;52.246;4.820;2022-08-14T05:40:33;7.17;;;5.10;;
14141;SDS011;7151;52.246;4.820;2022-08-14T05:42:59;5.90;;;5.20;;
14141;SDS011;7151;52.246;4.820;2022-08-14T05:45:26;6.33;;;5.67;;
14141;SDS011;7151;52.246;4.820;2022-08-14T05:47:52;7.37;;;5.67;;
14141;SDS011;7151;52.246;4.820;2022-08-14T05:50:17;5.93;;;5.33;;
14141;SDS011;7151;52.246;4.820;2022-08-14T05:52:43;6.80;;;5.67;;
14141;SDS011;7151;52.246;4.820;2022-08-14T05:55:09;6.83;;;5.73;;
14141;SDS011;7151;52.246;4.820;2022-08-14T05:57:48;7.23;;;5.23;;
14141;SDS011;7151;52.246;4.820;2022-08-14T06:00:28;6.83;;;5.63;;
14141;SDS011;7151;52.246;4.820;2022-08-14T06:03:02;8.67;;;5.67;;
14141;SDS011;7151;52.246;4.820;2022-08-14T06:05:29;7.07;;;5.50;;
14141;SDS011;7151;52.246;4.820;2022-08-14T06:07:58;8.13;;;6.73;;
14141;SDS011;7151;52.246;4.820;2022-08-14T06:10:24;6.83;;;6.10;;
14141;SDS011;7151;52.246;4.820;2022-08-14T06:12:54;5.23;;;4.73;;
14141;SDS011;7151;52.246;4.820;2022-08-14T06:15:26;6.57;;;5.57;;
14141;SDS011;7151;52.246;4.820;2022-08-14T06:17:52;8.47;;;6.17;;
14141;SDS011;7151;52.246;4.820;2022-08-14T06:20:20;7.17;;;5.80;;
14141;SDS011;7151;52.246;4.820;2022-08-14T06:22:47;6.40;;;5.67;;
14141;SDS011;7151;52.246;4.820;2022-08-14T06:25:13;8.97;;;5.73;;
14141;SDS011;7151;52.246;4.820;2022-08-14T06:27:43;6.47;;;5.70;;
14141;SDS011;7151;52.246;4.820;2022-08-14T06:30:12;6.20;;;5.60;;
14141;SDS011;7151;52.246;4.820;2022-08-14T06:32:42;6.87;;;5.83;;
14141;SDS011;7151;52.246;4.820;2022-08-14T06:35:09;7.57;;;5.93;;
14141;SDS011;7151;52.246;4.820;2022-08-14T06:37:49;6.83;;;5.77;;
14141;SDS011;7151;52.246;4.820;2022-08-14T06:40:16;6.17;;;5.43;;
14141;SDS011;7151;52.246;4.820;2022-08-14T06:42:44;7.33;;;6.27;;
14141;SDS011;7151;52.246;4.820;2022-08-14T06:45:09;6.00;;;5.40;;
14141;SDS011;7151;52.246;4.820;2022-08-14T06:47:36;8.13;;;5.83;;
14141;SDS011;7151;52.246;4.820;2022-08-14T06:50:06;6.97;;;5.43;;
14141;SDS011;7151;52.246;4.820;2022-08-14T06:52:43;7.30;;;6.43;;
14141;SDS011;7151;52.246;4.820;2022-08-14T06:55:10;6.93;;;5.87;;
14141;SDS011;7151;52.246;4.820;2022-08-14T06:57:49;7.20;;;5.27;;
14141;SDS011;7151;52.246;4.820;2022-08-14T07:00:21;5.93;;;5.33;;
14141;SDS011;7151;52.246;4.820;2022-08-14T07:02:48;6.27;;;5.40;;
14141;SDS011;7151;52.246;4.820;2022-08-14T07:05:33;6.40;;;5.00;;
14141;SDS011;7151;52.246;4.820;2022-08-14T07:08:13;7.03;;;5.07;;
14141;SDS011;7151;52.246;4.820;2022-08-14T07:10:51;5.73;;;5.17;;
14141;SDS011;7151;52.246;4.820;2022-08-14T07:13:18;7.50;;;5.67;;
14141;SDS011;7151;52.246;4.820;2022-08-14T07:15:45;5.30;;;4.80;;
14141;SDS011;7151;52.246;4.820;2022-08-14T07:18:15;7.40;;;5.63;;
14141;SDS011;7151;52.246;4.820;2022-08-14T07:20:44;7.63;;;6.00;;
14141;SDS011;7151;52.246;4.820;2022-08-14T07:23:10;5.87;;;4.67;;
14141;SDS011;7151;52.246;4.820;2022-08-14T07:25:36;8.53;;;5.20;;
14141;SDS011;7151;52.246;4.820;2022-08-14T07:28:07;6.13;;;4.80;;
14141;SDS011;7151;52.246;4.820;2022-08-14T07:30:41;6.40;;;5.60;;
14141;SDS011;7151;52.246;4.820;2022-08-14T07:33:08;6.33;;;5.30;;
14141;SDS011;7151;52.246;4.820;2022-08-14T07:35:35;6.93;;;5.10;;
14141;SDS011;7151;52.246;4.820;2022-08-14T07:38:02;6.20;;;5.30;;
14141;SDS011;7151;52.246;4.820;2022-08-14T07:40:28;7.60;;;4.90;;
14141;SDS011;7151;52.246;4.820;2022-08-14T07:42:54;6.20;;;5.60;;
14141;SDS011;7151;52.246;4.820;2022-08-14T07:45:20;7.47;;;5.30;;
14141;SDS011;7151;52.246;4.820;2022-08-14T07:47:45;6.87;;;4.97;;
14141;SDS011;7151;52.246;4.820;2022-08-14T07:50:12;6.97;;;5.30;;
14141;SDS011;7151;52.246;4.820;2022-08-14T07:52:40;7.70;;;5.70;;
14141;SDS011;7151;52.246;4.820;2022-08-14T07:55:07;5.73;;;5.17;;
14141;SDS011;7151;52.246;4.820;2022-08-14T07:57:34;6.30;;;5.27;;
14141;SDS011;7151;52.246;4.820;2022-08-14T08:00:03;6.97;;;5.47;;
14141;SDS011;7151;52.246;4.820;2022-08-14T08:02:33;6.97;;;5.50;;
14141;SDS011;7151;52.246;4.820;2022-08-14T08:05:00;6.23;;;5.63;;
14141;SDS011;7151;52.246;4.820;2022-08-14T08:07:28;6.70;;;5.33;;
14141;SDS011;7151;52.246;4.820;2022-08-14T08:09:55;5.30;;;4.80;;
14141;SDS011;7151;52.246;4.820;2022-08-14T08:12:21;6.30;;;5.70;;
14141;SDS011;7151;52.246;4.820;2022-08-14T08:14:49;5.77;;;5.17;;
14141;SDS011;7151;52.246;4.820;2022-08-14T08:17:16;5.67;;;5.13;;
14141;SDS011;7151;52.246;4.820;2022-08-14T08:19:43;6.03;;;5.43;;
14141;SDS011;7151;52.246;4.820;2022-08-14T08:22:11;6.57;;;5.57;;
14141;SDS011;7151;52.246;4.820;2022-08-14T08:24:37;6.03;;;5.30;;
14141;SDS011;7151;52.246;4.820;2022-08-14T08:27:12;8.17;;;5.77;;
14141;SDS011;7151;52.246;4.820;2022-08-14T08:29:41;8.90;;;4.80;;
14141;SDS011;7151;52.246;4.820;2022-08-14T08:32:07;5.90;;;4.83;;
14141;SDS011;7151;52.246;4.820;2022-08-14T08:34:43;5.90;;;5.23;;
14141;SDS011;7151;52.246;4.820;2022-08-14T08:37:09;5.13;;;4.63;;
14141;SDS011;7151;52.246;4.820;2022-08-14T08:39:45;8.97;;;5.90;;
14141;SDS011;7151;52.246;4.820;2022-08-14T08:42:11;7.27;;;5.60;;
14141;SDS011;7151;52.246;4.820;2022-08-14T08:44:37;6.00;;;4.97;;
14141;SDS011;7151;52.246;4.820;2022-08-14T08:47:03;5.83;;;5.23;;
14141;SDS011;7151;52.246;4.820;2022-08-14T08:49:39;6.10;;;5.50;;
14141;SDS011;7151;52.246;4.820;2022-08-14T08:52:07;5.22;;;4.72;;
14141;SDS011;7151;52.246;4.820;2022-08-14T08:54:32;7.30;;;5.47;;
14141;SDS011;7151;52.246;4.820;2022-08-14T08:56:58;6.20;;;5.60;;
14141;SDS011;7151;52.246;4.820;2022-08-14T08:59:25;7.13;;;5.20;;
14141;SDS011;7151;52.246;4.820;2022-08-14T09:01:54;5.70;;;4.70;;
14141;SDS011;7151;52.246;4.820;2022-08-14T09:04:22;6.22;;;5.18;;
14141;SDS011;7151;52.246;4.820;2022-08-14T09:06:49;7.05;;;5.30;;
14141;SDS011;7151;52.246;4.820;2022-08-14T09:09:24;5.65;;;5.15;;
14141;SDS011;7151;52.246;4.820;2022-08-14T09:11:51;4.80;;;4.40;;
14141;SDS011;7151;52.246;4.820;2022-08-14T09:14:22;4.90;;;4.40;;
14141;SDS011;7151;52.246;4.820;2022-08-14T09:16:59;4.78;;;4.38;;
14141;SDS011;7151;52.246;4.820;2022-08-14T09:19:25;5.05;;;4.25;;
14141;SDS011;7151;52.246;4.820;2022-08-14T09:21:52;4.53;;;4.13;;
14141;SDS011;7151;52.246;4.820;2022-08-14T09:24:19;4.95;;;4.45;;
14141;SDS011;7151;52.246;4.820;2022-08-14T09:26:45;4.95;;;4.53;;
14141;SDS011;7151;52.246;4.820;2022-08-14T09:29:11;4.78;;;4.30;;
14141;SDS011;7151;52.246;4.820;2022-08-14T09:31:37;5.57;;;4.93;;
14141;SDS011;7151;52.246;4.820;2022-08-14T09:34:21;6.63;;;4.80;;
14141;SDS011;7151;52.246;4.820;2022-08-14T09:50:32;5.93;;;4.78;;
14141;SDS011;7151;52.246;4.820;2022-08-14T09:53:16;4.93;;;4.43;;
14141;SDS011;7151;52.246;4.820;2022-08-14T09:55:57;6.35;;;4.75;;
14141;SDS011;7151;52.246;4.820;2022-08-14T09:58:33;6.53;;;5.10;;
14141;SDS011;7151;52.246;4.820;2022-08-14T10:01:06;4.60;;;3.92;;
14141;SDS011;7151;52.246;4.820;2022-08-14T10:03:34;5.10;;;4.55;;
14141;SDS011;7151;52.246;4.820;2022-08-14T10:06:09;6.43;;;4.75;;
14141;SDS011;7151;52.246;4.820;2022-08-14T10:08:42;8.98;;;4.95;;
14141;SDS011;7151;52.246;4.820;2022-08-14T10:11:21;8.73;;;5.00;;
14141;SDS011;7151;52.246;4.820;2022-08-14T10:13:58;5.38;;;4.88;;
14141;SDS011;7151;52.246;4.820;2022-08-14T10:16:40;5.45;;;4.40;;
14141;SDS011;7151;52.246;4.820;2022-08-14T10:19:08;7.25;;;4.63;;
14141;SDS011;7151;52.246;4.820;2022-08-14T10:21:36;4.90;;;4.22;;
14141;SDS011;7151;52.246;4.820;2022-08-14T10:24:04;5.65;;;5.00;;
14141;SDS011;7151;52.246;4.820;2022-08-14T10:26:32;4.50;;;4.10;;
14141;SDS011;7151;52.246;4.820;2022-08-14T10:29:05;5.25;;;4.50;;
14141;SDS011;7151;52.246;4.820;2022-08-14T10:31:33;4.95;;;4.20;;
14141;SDS011;7151;52.246;4.820;2022-08-14T10:36:33;4.55;;;4.15;;
14141;SDS011;7151;52.246;4.820;2022-08-14T10:39:05;5.03;;;4.55;;
14141;SDS011;7151;52.246;4.820;2022-08-14T10:41:36;9.68;;;5.13;;
14141;SDS011;7151;52.246;4.820;2022-08-14T10:44:14;5.93;;;4.53;;
14141;SDS011;7151;52.246;4.820;2022-08-14T10:46:45;4.35;;;4.00;;
14141;SDS011;7151;52.246;4.820;2022-08-14T10:49:20;4.38;;;3.88;;
14141;SDS011;7151;52.246;4.820;2022-08-14T10:52:02;4.47;;;4.13;;
14141;SDS011;7151;52.246;4.820;2022-08-14T10:54:46;4.68;;;4.28;;
14141;SDS011;7151;52.246;4.820;2022-08-14T10:57:16;4.43;;;4.03;;
14141;SDS011;7151;52.246;4.820;2022-08-14T10:59:56;5.03;;;4.13;;
14141;SDS011;7151;52.246;4.820;2022-08-14T11:02:29;4.38;;;3.97;;
14141;SDS011;7151;52.246;4.820;2022-08-14T11:07:31;4.60;;;4.20;;
14141;SDS011;7151;52.246;4.820;2022-08-14T11:10:05;4.90;;;3.97;;
14141;SDS011;7151;52.246;4.820;2022-08-14T11:12:45;4.32;;;3.95;;
14141;SDS011;7151;52.246;4.820;2022-08-14T11:15:17;4.13;;;3.83;;
14141;SDS011;7151;52.246;4.820;2022-08-14T11:17:48;3.85;;;3.50;;
14141;SDS011;7151;52.246;4.820;2022-08-14T11:20:15;4.78;;;3.45;;
14141;SDS011;7151;52.246;4.820;2022-08-14T11:22:42;5.03;;;3.67;;
14141;SDS011;7151;52.246;4.820;2022-08-14T11:25:10;4.20;;;3.58;;
14141;SDS011;7151;52.246;4.820;2022-08-14T11:27:39;3.42;;;3.17;;
14141;SDS011;7151;52.246;4.820;2022-08-14T11:30:15;7.20;;;3.90;;
14141;SDS011;7151;52.246;4.820;2022-08-14T11:32:44;3.78;;;3.40;;
14141;SDS011;7151;52.246;4.820;2022-08-14T11:35:19;4.03;;;3.50;;
14141;SDS011;7151;52.246;4.820;2022-08-14T11:37:50;3.30;;;3.08;;
14141;SDS011;7151;52.246;4.820;2022-08-14T11:40:17;2.95;;;2.67;;
14141;SDS011;7151;52.246;4.820;2022-08-14T11:42:45;3.00;;;2.80;;
14141;SDS011;7151;52.246;4.820;2022-08-14T11:45:12;3.15;;;2.85;;
14141;SDS011;7151;52.246;4.820;2022-08-14T11:47:38;3.25;;;3.05;;
14141;SDS011;7151;52.246;4.820;2022-08-14T11:50:10;4.93;;;2.70;;
14141;SDS011;7151;52.246;4.820;2022-08-14T11:52:42;2.78;;;2.53;;
14141;SDS011;7151;52.246;4.820;2022-08-14T11:55:09;3.13;;;2.92;;
14141;SDS011;7151;52.246;4.820;2022-08-14T11:57:36;3.15;;;2.85;;
14141;SDS011;7151;52.246;4.820;2022-08-14T12:00:13;2.90;;;2.70;;
14141;SDS011;7151;52.246;4.820;2022-08-14T12:02:51;3.47;;;3.17;;
14141;SDS011;7151;52.246;4.820;2022-08-14T12:05:35;3.15;;;2.95;;
14141;SDS011;7151;52.246;4.820;2022-08-14T12:08:04;3.05;;;2.85;;
14141;SDS011;7151;52.246;4.820;2022-08-14T12:10:31;3.08;;;2.60;;
14141;SDS011;7151;52.246;4.820;2022-08-14T12:12:58;4.05;;;2.70;;
14141;SDS011;7151;52.246;4.820;2022-08-14T12:15:46;2.80;;;2.60;;
14141;SDS011;7151;52.246;4.820;2022-08-14T12:18:32;3.40;;;3.15;;
14141;SDS011;7151;52.246;4.820;2022-08-14T12:24:07;4.05;;;3.08;;
14141;SDS011;7151;52.246;4.820;2022-08-14T12:26:34;3.63;;;2.75;;
14141;SDS011;7151;52.246;4.820;2022-08-14T12:29:11;2.90;;;2.70;;
14141;SDS011;7151;52.246;4.820;2022-08-14T12:31:40;2.90;;;2.70;;
14141;SDS011;7151;52.246;4.820;2022-08-14T12:34:07;3.28;;;2.97;;
14141;SDS011;7151;52.246;4.820;2022-08-14T12:36:35;4.05;;;3.00;;
14141;SDS011;7151;52.246;4.820;2022-08-14T12:39:03;2.78;;;2.47;;
14141;SDS011;7151;52.246;4.820;2022-08-14T12:41:48;3.08;;;2.78;;
14141;SDS011;7151;52.246;4.820;2022-08-14T12:44:33;3.15;;;2.92;;
14141;SDS011;7151;52.246;4.820;2022-08-14T12:47:02;4.50;;;2.95;;
14141;SDS011;7151;52.246;4.820;2022-08-14T12:49:46;3.25;;;2.95;;
14141;SDS011;7151;52.246;4.820;2022-08-14T12:55:01;4.07;;;3.00;;
14141;SDS011;7151;52.246;4.820;2022-08-14T12:57:46;3.45;;;3.15;;
14141;SDS011;7151;52.246;4.820;2022-08-14T13:00:16;3.03;;;2.83;;
14141;SDS011;7151;52.246;4.820;2022-08-14T13:02:45;3.55;;;3.30;;
14141;SDS011;7151;52.246;4.820;2022-08-14T13:05:14;4.28;;;3.30;;
14141;SDS011;7151;52.246;4.820;2022-08-14T13:07:40;3.47;;;2.88;;
14141;SDS011;7151;52.246;4.820;2022-08-14T13:10:08;3.80;;;3.47;;
14141;SDS011;7151;52.246;4.820;2022-08-14T13:12:36;4.38;;;2.97;;
14141;SDS011;7151;52.246;4.820;2022-08-14T13:15:03;3.08;;;2.88;;
14141;SDS011;7151;52.246;4.820;2022-08-14T13:17:31;3.40;;;3.10;;
14141;SDS011;7151;52.246;4.820;2022-08-14T13:20:02;3.70;;;2.80;;
14141;SDS011;7151;52.246;4.820;2022-08-14T13:22:29;3.05;;;2.75;;
14141;SDS011;7151;52.246;4.820;2022-08-14T13:24:55;3.72;;;3.28;;
14141;SDS011;7151;52.246;4.820;2022-08-14T13:27:21;2.83;;;2.63;;
14141;SDS011;7151;52.246;4.820;2022-08-14T13:29:49;2.50;;;2.40;;
14141;SDS011;7151;52.246;4.820;2022-08-14T13:32:17;3.42;;;3.13;;
14141;SDS011;7151;52.246;4.820;2022-08-14T13:34:44;2.90;;;2.65;;
14141;SDS011;7151;52.246;4.820;2022-08-14T13:37:16;2.97;;;2.78;;
14141;SDS011;7151;52.246;4.820;2022-08-14T13:39:49;3.25;;;2.88;;
14141;SDS011;7151;52.246;4.820;2022-08-14T13:42:16;3.00;;;2.80;;
14141;SDS011;7151;52.246;4.820;2022-08-14T13:44:46;3.17;;;2.88;;
14141;SDS011;7151;52.246;4.820;2022-08-14T13:47:19;3.08;;;2.88;;
14141;SDS011;7151;52.246;4.820;2022-08-14T13:49:45;3.00;;;2.70;;
14141;SDS011;7151;52.246;4.820;2022-08-14T13:52:12;3.03;;;2.83;;
14141;SDS011;7151;52.246;4.820;2022-08-14T13:54:43;2.63;;;2.28;;
14141;SDS011;7151;52.246;4.820;2022-08-14T13:57:11;2.78;;;2.58;;
14141;SDS011;7151;52.246;4.820;2022-08-14T13:59:40;3.20;;;2.90;;
14141;SDS011;7151;52.246;4.820;2022-08-14T14:02:10;2.88;;;2.67;;
14141;SDS011;7151;52.246;4.820;2022-08-14T14:04:40;2.80;;;2.60;;
14141;SDS011;7151;52.246;4.820;2022-08-14T14:07:08;3.00;;;2.80;;
14141;SDS011;7151;52.246;4.820;2022-08-14T14:09:37;3.03;;;2.80;;
14141;SDS011;7151;52.246;4.820;2022-08-14T14:12:05;3.95;;;3.00;;
14141;SDS011;7151;52.246;4.820;2022-08-14T14:14:37;2.83;;;2.60;;
14141;SDS011;7151;52.246;4.820;2022-08-14T14:17:04;3.42;;;3.13;;
14141;SDS011;7151;52.246;4.820;2022-08-14T14:19:30;4.57;;;2.80;;
14141;SDS011;7151;52.246;4.820;2022-08-14T14:22:00;2.78;;;2.53;;
14141;SDS011;7151;52.246;4.820;2022-08-14T14:24:27;4.25;;;3.13;;
14141;SDS011;7151;52.246;4.820;2022-08-14T14:26:53;3.13;;;2.83;;
14141;SDS011;7151;52.246;4.820;2022-08-14T14:29:24;2.72;;;2.53;;
14141;SDS011;7151;52.246;4.820;2022-08-14T14:31:50;2.50;;;2.30;;
14141;SDS011;7151;52.246;4.820;2022-08-14T14:34:16;2.78;;;2.58;;
14141;SDS011;7151;52.246;4.820;2022-08-14T14:36:48;2.80;;;2.60;;
14141;SDS011;7151;52.246;4.820;2022-08-14T14:39:14;3.25;;;2.63;;
14141;SDS011;7151;52.246;4.820;2022-08-14T14:41:41;3.10;;;2.80;;
14141;SDS011;7151;52.246;4.820;2022-08-14T14:44:14;3.28;;;3.08;;
14141;SDS011;7151;52.246;4.820;2022-08-14T14:46:43;5.45;;;3.08;;
14141;SDS011;7151;52.246;4.820;2022-08-14T14:49:14;3.25;;;3.03;;
14141;SDS011;7151;52.246;4.820;2022-08-14T14:51:45;3.33;;;3.10;;
14141;SDS011;7151;52.246;4.820;2022-08-14T14:54:11;3.53;;;3.22;;
14141;SDS011;7151;52.246;4.820;2022-08-14T14:56:41;3.78;;;3.47;;
14141;SDS011;7151;52.246;4.820;2022-08-14T14:59:07;4.18;;;3.10;;
14141;SDS011;7151;52.246;4.820;2022-08-14T15:01:36;4.15;;;3.75;;
14141;SDS011;7151;52.246;4.820;2022-08-14T15:04:03;3.58;;;3.13;;
14141;SDS011;7151;52.246;4.820;2022-08-14T15:06:30;4.78;;;3.35;;
14141;SDS011;7151;52.246;4.820;2022-08-14T15:08:56;3.83;;;3.50;;
14141;SDS011;7151;52.246;4.820;2022-08-14T15:11:23;3.55;;;3.25;;
14141;SDS011;7151;52.246;4.820;2022-08-14T15:13:50;3.70;;;3.40;;
14141;SDS011;7151;52.246;4.820;2022-08-14T15:16:15;3.60;;;3.20;;
14141;SDS011;7151;52.246;4.820;2022-08-14T15:18:41;2.95;;;2.75;;
14141;SDS011;7151;52.246;4.820;2022-08-14T15:21:09;3.05;;;2.85;;
14141;SDS011;7151;52.246;4.820;2022-08-14T15:23:36;4.00;;;3.70;;
14141;SDS011;7151;52.246;4.820;2022-08-14T15:26:02;3.70;;;3.40;;
14141;SDS011;7151;52.246;4.820;2022-08-14T15:28:29;4.00;;;3.67;;
14141;SDS011;7151;52.246;4.820;2022-08-14T15:31:01;3.80;;;3.50;;
14141;SDS011;7151;52.246;4.820;2022-08-14T15:33:28;7.38;;;3.58;;
14141;SDS011;7151;52.246;4.820;2022-08-14T15:36:12;3.80;;;3.50;;
14141;SDS011;7151;52.246;4.820;2022-08-14T15:38:38;3.83;;;3.20;;